VTSP/HKT METAR and TAF weather

Enter ICAO airport designator
Station Type Date Time Source
VTSP METAR 2021/10/22 20:00 UTC NOAA

VTSP 222000Z VRB02KT 9999 FEW020 24/24 Q1011 NOSIG


Station Type Date Time Source
VTSP Decoded METAR 2021/10/22 20:00 UTC NOAA

Phuket Airport, Thailand (VTSP) 08-07N 098-19E 10M
Oct 22, 2021 - 04:00 PM EDT / 2021.10.22 2000 UTC
Wind: Variable at 2 MPH (2 KT):0
Visibility: greater than 7 mile(s):0
Sky conditions: mostly clear
Temperature: 75 F (24 C)
Dew Point: 75 F (24 C)
Relative Humidity: 100%
Pressure (altimeter): 29.85 in. Hg (1011 hPa)
ob: VTSP 222000Z VRB02KT 9999 FEW020 24/24 Q1011 NOSIG
cycle: 20

Station Type Date Time Source
VTSP TAF 2021/10/22 18:36 UTC NOAA

TAF VTSP 221700Z 2218/2324 00000KT 9999 SCT020
BECMG 2300/2302 30006KT

Example: see airport list